WEATHER DATA

YESTERDAY
Time Temp. Dewp. Hum. Bar.
00:07 8.2 2.9 69 934.5
00:17 8.1 3 70 934.4
00:26 8.1 3 70 934.4
00:37 8 2.9 70 934.4
00:48 7.9 3 71 934.3
00:58 7.9 3 71 934.3
01:08 7.9 3 71 934.3
01:17 7.8 2.9 71 934.3
01:28 7.8 3.1 72 934.3
01:38 7.6 2.9 72 934.3
01:48 7.7 3 72 934.2
01:58 7.6 3.1 73 934.2
02:08 7.5 3 73 934.3
02:18 7.4 2.9 73 934.3
02:28 7.4 3.1 74 934.3
02:39 7.4 3.1 74 934.4
02:49 7.4 3.1 74 934.4
02:58 7.4 3.1 74 934.4
03:09 7.2 3.1 75 934.3
03:19 7.2 3.1 75 934.2
03:29 7.2 3.1 75 934.1
03:39 7.2 3.3 76 934.1
03:50 7.2 3.3 76 933.9
03:58 7.2 3.3 76 933.9
04:09 7.2 3.1 75 933.8
04:19 7.2 3.3 76 933.7
04:30 7.1 3 75 933.6
04:40 7 3.1 76 933.5
04:49 7 3.1 76 933.4
05:00 7 3.1 76 933.4
05:10 7.1 3 75 933.4
05:20 6.9 3 76 933.3
05:30 7 3.1 76 933.3
05:40 7 3.1 76 933.3
05:50 7 3.1 76 933.3
06:00 6.8 2.9 76 933.3
06:11 6.8 2.9 76 933.4
06:21 6.8 2.9 76 933.4
06:31 6.8 2.7 75 933.5
06:40 6.7 2.6 75 933.6
06:51 6.5 2.4 75 933.7
07:01 6.4 2.5 76 933.7
07:11 6.4 2.3 75 933.7
07:21 6.1 2 75 933.8
07:31 6 2.3 77 933.8
07:41 5.8 1.9 76 933.8
07:51 5.7 2 77 933.8
08:02 5.7 2 77 933.9
08:12 5.8 1.9 76 934.1
08:21 5.7 1.8 76 934.1
08:32 5.5 1.8 77 934.1
08:41 5.6 1.9 77 934.2
08:52 5.6 1.7 76 934.2
09:02 5.5 1.8 77 934.3
09:13 5.4 1.7 77 934.3
09:22 5.3 1.6 77 934.4
09:32 5.3 1.8 78 934.4
09:42 6 2.5 78 934.5
09:53 6.7 2.8 76 934.6
10:03 7.3 3 74 934.6
10:12 8.1 3.4 72 934.7
10:23 9.1 4.1 71 934.7
10:33 10.2 4.4 67 934.8
10:43 11.3 4.7 64 934.8
10:53 12.3 5.5 63 934.8
10:59 12.8 5.7 62 934.8
11:13 13.9 6.3 60 934.8
11:22 14.6 6.9 60 934.8
11:34 15.2 7.5 60 934.8
11:52 16.4 7.9 57 934.8
14:45 19.9 11.9 60 934.5
15:19 19.7 11.7 60 934.7
15:36 19.6 11.9 61 934.7
16:28 19 11.8 63 934.7
16:36 18.9 11.7 63 934.7
16:44 18.6 11.7 64 934.7
16:49 18.4 11.5 64 934.7
17:13 17.9 11.5 66 934.7
17:38 17.7 11.5 67 934.8
17:58 16.9 11.2 69 934.9
18:09 16.7 11 69 935
18:17 16.5 11 70 935.1
18:28 16.2 10.9 71 935.3
18:38 16 11 72 935.4
18:48 15.8 10.8 72 935.5
18:58 15.6 10.8 73 935.6
19:09 15.5 10.7 73 935.7
19:19 15.5 10.9 74 935.8
19:29 15.4 10.8 74 935.7
19:39 15 10.6 75 935.8
19:50 14.7 10.5 76 935.8
19:59 14.6 10.2 75 935.8
20:09 14.3 9.5 73 936
20:19 14.2 9.4 73 936.1
20:30 13.8 9.1 73 936.2
20:40 13.6 8.9 73 936.2
20:50 13.3 8.4 72 936.5
21:00 13.1 8.2 72 936.6
21:10 12.5 7.8 73 936.6
21:20 11.9 7.6 75 936.7
21:30 11.5 7.4 76 936.8
21:41 11.2 7.3 77 937
21:50 11.1 7.2 77 937.1
22:00 11.1 7.4 78 937.2
22:11 11 7.3 78 937.4
22:21 10.9 7.2 78 937.5
22:31 10.8 7.3 79 937.5
22:40 10.7 7 78 937.5
22:51 10.6 6.9 78 937.7
23:01 10.5 6.8 78 937.9
23:11 10.5 6.8 78 937.9
23:21 10.5 6.8 78 938
23:31 10.3 6.6 78 938.1
23:41 10.2 6.5 78 938.2
23:51 10 6.3 78 938.3

DAY STATISTIC

2022-10-04
TEMPERATURE
AVERAGE
10.2
HIGH
19.9
14:45
LOW
5.3
09:22
PRESSURE
AVERAGE
934.9
HIGH
938.3
23:51
LOW
933.3
05:20
DEWPOINT
AVERAGE
5.6
HIGH
11.9
14:45
LOW
1.6
09:22
HUMIDITY
AVERAGE
73
HIGH
79
22:31
LOW
57
11:52
TEMPERATURE (°C)
LOW
5.3
HIGH
19.9
AVERAGE
10.2
PRESSURE (hpa)
LOW
933.3
HIGH
938.3
AVERAGE
934.9
DEVICE